sensor_id;sensor_type;location;lat;lon;timestamp;pressure;altitude;pressure_sealevel;temperature;humidity
44675;BME280;30388;52.038;-1.478;2023-01-31T00:01:05;65391.79;;;5.86;100.00
44675;BME280;30388;52.038;-1.478;2023-01-31T00:03:32;65363.55;;;6.22;100.00
44675;BME280;30388;52.038;-1.478;2023-01-31T00:06:09;65274.42;;;5.58;100.00
44675;BME280;30388;52.038;-1.478;2023-01-31T00:08:37;65237.61;;;5.10;100.00
44675;BME280;30388;52.038;-1.478;2023-01-31T00:11:04;65314.33;;;5.81;100.00
44675;BME280;30388;52.038;-1.478;2023-01-31T00:13:31;65215.39;;;4.82;100.00
44675;BME280;30388;52.038;-1.478;2023-01-31T00:15:58;65281.28;;;5.65;100.00
44675;BME280;30388;52.038;-1.478;2023-01-31T00:18:26;65212.82;;;5.01;100.00
44675;BME280;30388;52.038;-1.478;2023-01-31T00:20:53;65221.94;;;5.39;100.00
44675;BME280;30388;52.038;-1.478;2023-01-31T00:23:20;65243.35;;;5.40;100.00
44675;BME280;30388;52.038;-1.478;2023-01-31T00:25:47;65211.46;;;4.77;100.00
44675;BME280;30388;52.038;-1.478;2023-01-31T00:28:14;65221.63;;;5.11;100.00
44675;BME280;30388;52.038;-1.478;2023-01-31T00:30:42;65161.23;;;4.62;100.00
44675;BME280;30388;52.038;-1.478;2023-01-31T00:33:09;65233.21;;;5.54;100.00
44675;BME280;30388;52.038;-1.478;2023-01-31T00:35:38;65158.43;;;4.81;100.00
44675;BME280;30388;52.038;-1.478;2023-01-31T00:38:06;65211.62;;;5.00;100.00
44675;BME280;30388;52.038;-1.478;2023-01-31T00:40:34;65220.43;;;4.89;100.00
44675;BME280;30388;52.038;-1.478;2023-01-31T00:43:01;65181.77;;;4.88;100.00
44675;BME280;30388;52.038;-1.478;2023-01-31T00:45:28;65205.38;;;4.92;100.00
44675;BME280;30388;52.038;-1.478;2023-01-31T00:47:55;65172.27;;;4.76;100.00
44675;BME280;30388;52.038;-1.478;2023-01-31T00:50:23;65197.14;;;5.08;100.00
44675;BME280;30388;52.038;-1.478;2023-01-31T00:52:50;65156.75;;;4.56;100.00
44675;BME280;30388;52.038;-1.478;2023-01-31T00:55:18;65200.88;;;5.13;100.00
44675;BME280;30388;52.038;-1.478;2023-01-31T00:57:45;65166.30;;;4.68;100.00
44675;BME280;30388;52.038;-1.478;2023-01-31T01:00:14;65244.46;;;5.19;100.00
44675;BME280;30388;52.038;-1.478;2023-01-31T01:02:41;65320.13;;;5.88;100.00
44675;BME280;30388;52.038;-1.478;2023-01-31T01:05:08;65301.10;;;5.92;100.00
44675;BME280;30388;52.038;-1.478;2023-01-31T01:07:35;65268.34;;;5.50;100.00
44675;BME280;30388;52.038;-1.478;2023-01-31T01:10:03;65304.58;;;5.69;100.00
44675;BME280;30388;52.038;-1.478;2023-01-31T01:12:31;65317.68;;;5.86;100.00
44675;BME280;30388;52.038;-1.478;2023-01-31T01:12:37;65313.36;;;6.07;100.00
44675;BME280;30388;52.038;-1.478;2023-01-31T01:15:06;65342.38;;;5.95;100.00
44675;BME280;30388;52.038;-1.478;2023-01-31T01:17:33;65328.92;;;6.00;100.00
44675;BME280;30388;52.038;-1.478;2023-01-31T01:20:00;65320.90;;;5.89;100.00
44675;BME280;30388;52.038;-1.478;2023-01-31T01:22:28;65341.97;;;6.16;100.00
44675;BME280;30388;52.038;-1.478;2023-01-31T01:24:55;65313.04;;;5.08;100.00
44675;BME280;30388;52.038;-1.478;2023-01-31T01:27:22;65311.31;;;5.77;100.00
44675;BME280;30388;52.038;-1.478;2023-01-31T01:29:54;65346.23;;;6.21;100.00
44675;BME280;30388;52.038;-1.478;2023-01-31T01:32:21;65289.31;;;5.76;100.00
44675;BME280;30388;52.038;-1.478;2023-01-31T01:34:48;65311.31;;;5.77;100.00
44675;BME280;30388;52.038;-1.478;2023-01-31T01:37:15;65384.89;;;6.70;100.00
44675;BME280;30388;52.038;-1.478;2023-01-31T01:39:43;65306.11;;;5.49;100.00
44675;BME280;30388;52.038;-1.478;2023-01-31T01:42:14;65395.12;;;6.62;100.00
44675;BME280;30388;52.038;-1.478;2023-01-31T01:44:46;65343.37;;;6.18;100.00
44675;BME280;30388;52.038;-1.478;2023-01-31T01:47:18;65353.55;;;6.08;100.00
44675;BME280;30388;52.038;-1.478;2023-01-31T01:49:55;65378.01;;;6.39;100.00
44675;BME280;30388;52.038;-1.478;2023-01-31T01:52:24;65412.96;;;6.84;100.00
44675;BME280;30388;52.038;-1.478;2023-01-31T01:54:55;65385.10;;;6.49;100.00
44675;BME280;30388;52.038;-1.478;2023-01-31T01:57:29;65310.47;;;5.53;100.00
44675;BME280;30388;52.038;-1.478;2023-01-31T02:00:04;65474.94;;;7.40;100.00
44675;BME280;30388;52.038;-1.478;2023-01-31T02:02:35;65537.85;;;7.93;100.00
44675;BME280;30388;52.038;-1.478;2023-01-31T02:05:04;65508.14;;;7.56;100.00
44675;BME280;30388;52.038;-1.478;2023-01-31T02:07:32;65514.09;;;7.63;100.00
44675;BME280;30388;52.038;-1.478;2023-01-31T02:10:04;65508.99;;;7.83;100.00
44675;BME280;30388;52.038;-1.478;2023-01-31T02:12:33;65476.23;;;7.15;100.00
44675;BME280;30388;52.038;-1.478;2023-01-31T02:15:02;65453.33;;;7.13;100.00
44675;BME280;30388;52.038;-1.478;2023-01-31T02:17:29;65568.25;;;8.31;100.00
44675;BME280;30388;52.038;-1.478;2023-01-31T02:20:04;65559.13;;;8.20;100.00
44675;BME280;30388;52.038;-1.478;2023-01-31T02:22:38;65528.52;;;7.81;100.00
44675;BME280;30388;52.038;-1.478;2023-01-31T02:27:42;65438.49;;;7.65;100.00
44675;BME280;30388;52.038;-1.478;2023-01-31T02:30:33;65410.47;;;6.80;100.00
44675;BME280;30388;52.038;-1.478;2023-01-31T02:33:09;65275.80;;;5.10;100.00
44675;BME280;30388;52.038;-1.478;2023-01-31T02:35:50;65419.16;;;6.92;100.00
44675;BME280;30388;52.038;-1.478;2023-01-31T02:38:31;65428.38;;;7.04;100.00
44675;BME280;30388;52.038;-1.478;2023-01-31T02:41:12;65384.37;;;6.47;100.00
44675;BME280;30388;52.038;-1.478;2023-01-31T02:43:45;65359.84;;;6.16;100.00
44675;BME280;30388;52.038;-1.478;2023-01-31T02:46:18;65370.68;;;6.79;100.00
44675;BME280;30388;52.038;-1.478;2023-01-31T02:48:53;65296.38;;;5.85;100.00
44675;BME280;30388;52.038;-1.478;2023-01-31T02:51:27;65316.43;;;5.84;100.00
44675;BME280;30388;52.038;-1.478;2023-01-31T02:54:02;65188.53;;;4.97;100.00
44675;BME280;30388;52.038;-1.478;2023-01-31T02:56:31;65192.65;;;5.25;100.00
44675;BME280;30388;52.038;-1.478;2023-01-31T02:59:04;65151.91;;;4.72;100.00
44675;BME280;30388;52.038;-1.478;2023-01-31T03:01:34;65192.48;;;4.75;100.00
44675;BME280;30388;52.038;-1.478;2023-01-31T03:04:04;65209.87;;;5.23;100.00
44675;BME280;30388;52.038;-1.478;2023-01-31T03:06:53;65175.46;;;4.53;100.00
44675;BME280;30388;52.038;-1.478;2023-01-31T03:09:30;65232.80;;;5.04;100.00
44675;BME280;30388;52.038;-1.478;2023-01-31T03:12:07;65251.33;;;5.27;100.00
44675;BME280;30388;52.038;-1.478;2023-01-31T03:14:45;65215.19;;;5.04;100.00
44675;BME280;30388;52.038;-1.478;2023-01-31T03:17:20;65151.64;;;4.23;100.00
44675;BME280;30388;52.038;-1.478;2023-01-31T03:20:00;65216.70;;;4.84;100.00
44675;BME280;30388;52.038;-1.478;2023-01-31T03:22:33;65171.64;;;4.49;100.00
44675;BME280;30388;52.038;-1.478;2023-01-31T03:25:03;65241.61;;;5.38;100.00
44675;BME280;30388;52.038;-1.478;2023-01-31T03:27:33;65245.81;;;5.21;100.00
44675;BME280;30388;52.038;-1.478;2023-01-31T03:30:06;65230.60;;;5.01;100.00
44675;BME280;30388;52.038;-1.478;2023-01-31T03:32:38;65251.10;;;5.28;100.00
44675;BME280;30388;52.038;-1.478;2023-01-31T03:35:07;65247.08;;;5.22;100.00
44675;BME280;30388;52.038;-1.478;2023-01-31T03:37:40;65231.44;;;5.02;100.00
44675;BME280;30388;52.038;-1.478;2023-01-31T03:40:14;65228.75;;;5.21;100.00
44675;BME280;30388;52.038;-1.478;2023-01-31T03:42:46;65297.55;;;5.86;100.00
44675;BME280;30388;52.038;-1.478;2023-01-31T03:45:20;65276.83;;;5.59;100.00
44675;BME280;30388;52.038;-1.478;2023-01-31T03:47:53;65264.03;;;5.44;100.00
44675;BME280;30388;52.038;-1.478;2023-01-31T03:50:27;65197.92;;;5.09;100.00
44675;BME280;30388;52.038;-1.478;2023-01-31T03:52:59;65249.84;;;5.26;100.00
44675;BME280;30388;52.038;-1.478;2023-01-31T03:55:33;65230.61;;;5.24;100.00
44675;BME280;30388;52.038;-1.478;2023-01-31T03:58:03;65235.92;;;5.30;100.00
44675;BME280;30388;52.038;-1.478;2023-01-31T04:00:34;65226.51;;;4.96;100.00
44675;BME280;30388;52.038;-1.478;2023-01-31T04:03:06;65235.55;;;5.08;100.00
44675;BME280;30388;52.038;-1.478;2023-01-31T04:05:36;65261.49;;;5.41;100.00
44675;BME280;30388;52.038;-1.478;2023-01-31T04:08:04;65235.69;;;5.30;100.00
44675;BME280;30388;52.038;-1.478;2023-01-31T04:10:31;65303.92;;;5.95;100.00
44675;BME280;30388;52.038;-1.478;2023-01-31T04:12:58;65280.90;;;5.66;100.00
44675;BME280;30388;52.038;-1.478;2023-01-31T04:15:30;65261.14;;;5.40;100.00
44675;BME280;30388;52.038;-1.478;2023-01-31T04:17:58;65250.18;;;5.00;100.00
44675;BME280;30388;52.038;-1.478;2023-01-31T04:20:25;65305.21;;;5.70;100.00
44675;BME280;30388;52.038;-1.478;2023-01-31T04:22:52;65300.31;;;5.90;100.00
44675;BME280;30388;52.038;-1.478;2023-01-31T04:25:20;65295.50;;;5.84;100.00
44675;BME280;30388;52.038;-1.478;2023-01-31T04:27:47;65252.17;;;5.29;100.00
44675;BME280;30388;52.038;-1.478;2023-01-31T04:30:14;65244.80;;;4.93;100.00
44675;BME280;30388;52.038;-1.478;2023-01-31T04:32:41;65304.69;;;5.95;100.00
44675;BME280;30388;52.038;-1.478;2023-01-31T04:35:09;65200.65;;;5.12;100.00
44675;BME280;30388;52.038;-1.478;2023-01-31T04:37:36;65254.56;;;5.32;100.00
44675;BME280;30388;52.038;-1.478;2023-01-31T04:40:05;65229.05;;;5.22;100.00
44675;BME280;30388;52.038;-1.478;2023-01-31T04:42:32;65179.19;;;4.59;100.00
44675;BME280;30388;52.038;-1.478;2023-01-31T04:45:00;65255.58;;;5.33;100.00
44675;BME280;30388;52.038;-1.478;2023-01-31T04:47:27;65242.24;;;5.38;100.00
44675;BME280;30388;52.038;-1.478;2023-01-31T04:49:54;65219.03;;;4.87;100.00
44675;BME280;30388;52.038;-1.478;2023-01-31T04:52:21;65239.66;;;5.13;100.00
44675;BME280;30388;52.038;-1.478;2023-01-31T04:54:49;65287.46;;;5.74;100.00
44675;BME280;30388;52.038;-1.478;2023-01-31T04:57:16;65326.05;;;5.96;100.00
44675;BME280;30388;52.038;-1.478;2023-01-31T04:59:43;65289.78;;;5.49;100.00
44675;BME280;30388;52.038;-1.478;2023-01-31T05:02:10;65326.95;;;5.97;100.00
44675;BME280;30388;52.038;-1.478;2023-01-31T05:04:37;65345.78;;;5.99;100.00
44675;BME280;30388;52.038;-1.478;2023-01-31T05:07:05;65344.74;;;6.20;100.00
44675;BME280;30388;52.038;-1.478;2023-01-31T05:09:32;65321.26;;;5.90;100.00
44675;BME280;30388;52.038;-1.478;2023-01-31T05:11:59;65222.09;;;4.91;100.00
44675;BME280;30388;52.038;-1.478;2023-01-31T05:14:26;65198.05;;;4.60;100.00
44675;BME280;30388;52.038;-1.478;2023-01-31T05:16:54;65252.53;;;5.29;100.00
44675;BME280;30388;52.038;-1.478;2023-01-31T05:19:21;65202.84;;;4.88;100.00
44675;BME280;30388;52.038;-1.478;2023-01-31T05:21:48;65227.62;;;4.98;100.00
44675;BME280;30388;52.038;-1.478;2023-01-31T05:24:15;65289.33;;;5.76;100.00
44675;BME280;30388;52.038;-1.478;2023-01-31T05:26:43;65254.74;;;5.32;100.00
44675;BME280;30388;52.038;-1.478;2023-01-31T05:29:10;65302.88;;;5.93;100.00
44675;BME280;30388;52.038;-1.478;2023-01-31T05:31:37;65358.55;;;6.63;100.00
44675;BME280;30388;52.038;-1.478;2023-01-31T05:34:04;65282.51;;;5.40;100.00
44675;BME280;30388;52.038;-1.478;2023-01-31T05:36:32;65307.90;;;5.73;100.00
44675;BME280;30388;52.038;-1.478;2023-01-31T05:38:59;65272.16;;;5.53;100.00
44675;BME280;30388;52.038;-1.478;2023-01-31T05:41:26;65313.04;;;5.79;100.00
44675;BME280;30388;52.038;-1.478;2023-01-31T05:43:53;65369.32;;;6.29;100.00
44675;BME280;30388;52.038;-1.478;2023-01-31T05:46:21;65317.96;;;5.63;100.00
44675;BME280;30388;52.038;-1.478;2023-01-31T05:48:48;65298.00;;;5.38;100.00
44675;BME280;30388;52.038;-1.478;2023-01-31T05:51:16;65285.83;;;5.45;100.00
44675;BME280;30388;52.038;-1.478;2023-01-31T05:53:43;65361.15;;;6.41;100.00
44675;BME280;30388;52.038;-1.478;2023-01-31T05:56:10;65373.74;;;6.34;100.00
44675;BME280;30388;52.038;-1.478;2023-01-31T05:58:37;65409.80;;;6.80;100.00
44675;BME280;30388;52.038;-1.478;2023-01-31T06:01:04;65352.64;;;6.08;100.00
44675;BME280;30388;52.038;-1.478;2023-01-31T06:03:32;65341.31;;;6.15;100.00
44675;BME280;30388;52.038;-1.478;2023-01-31T06:05:59;65340.52;;;6.13;100.00
44675;BME280;30388;52.038;-1.478;2023-01-31T06:08:26;65367.36;;;6.48;100.00
44675;BME280;30388;52.038;-1.478;2023-01-31T06:10:53;65380.02;;;6.41;100.00
44675;BME280;30388;52.038;-1.478;2023-01-31T06:13:21;65302.79;;;5.93;100.00
44675;BME280;30388;52.038;-1.478;2023-01-31T06:15:48;65310.80;;;6.02;100.00
44675;BME280;30388;52.038;-1.478;2023-01-31T06:18:16;65424.80;;;6.77;100.00
44675;BME280;30388;52.038;-1.478;2023-01-31T06:20:44;65421.87;;;6.73;100.00
44675;BME280;30388;52.038;-1.478;2023-01-31T06:23:10;65416.93;;;6.89;100.00
44675;BME280;30388;52.038;-1.478;2023-01-31T06:25:38;65403.21;;;6.72;100.00
44675;BME280;30388;52.038;-1.478;2023-01-31T06:28:05;65316.41;;;6.10;100.00
44675;BME280;30388;52.038;-1.478;2023-01-31T06:30:32;65375.77;;;6.37;100.00
44675;BME280;30388;52.038;-1.478;2023-01-31T06:33:00;65356.41;;;6.34;100.00
44675;BME280;30388;52.038;-1.478;2023-01-31T06:35:27;65273.15;;;5.55;100.00
44675;BME280;30388;52.038;-1.478;2023-01-31T06:37:54;65343.68;;;6.45;100.00
44675;BME280;30388;52.038;-1.478;2023-01-31T06:40:21;65297.87;;;5.86;100.00
44675;BME280;30388;52.038;-1.478;2023-01-31T06:42:48;65336.71;;;6.09;100.00
44675;BME280;30388;52.038;-1.478;2023-01-31T06:45:16;65360.27;;;6.39;100.00
44675;BME280;30388;52.038;-1.478;2023-01-31T06:47:44;65312.87;;;6.07;100.00
44675;BME280;30388;52.038;-1.478;2023-01-31T06:50:12;65350.97;;;6.28;100.00
44675;BME280;30388;52.038;-1.478;2023-01-31T06:52:40;65373.52;;;6.34;100.00
44675;BME280;30388;52.038;-1.478;2023-01-31T06:55:08;65327.76;;;5.98;100.00
44675;BME280;30388;52.038;-1.478;2023-01-31T06:57:35;65349.91;;;6.26;100.00
44675;BME280;30388;52.038;-1.478;2023-01-31T07:00:03;65279.66;;;5.36;100.00
44675;BME280;30388;52.038;-1.478;2023-01-31T07:02:30;65290.97;;;5.77;100.00
44675;BME280;30388;52.038;-1.478;2023-01-31T07:04:58;65326.98;;;6.24;100.00
44675;BME280;30388;52.038;-1.478;2023-01-31T07:07:25;65289.12;;;5.75;100.00
44675;BME280;30388;52.038;-1.478;2023-01-31T07:09:52;65247.64;;;5.23;100.00
44675;BME280;30388;52.038;-1.478;2023-01-31T07:12:19;65317.51;;;6.12;100.00
44675;BME280;30388;52.038;-1.478;2023-01-31T07:14:47;65302.11;;;5.43;100.00
44675;BME280;30388;52.038;-1.478;2023-01-31T07:17:14;65309.30;;;5.74;100.00
44675;BME280;30388;52.038;-1.478;2023-01-31T07:19:41;65369.34;;;6.50;100.00
44675;BME280;30388;52.038;-1.478;2023-01-31T07:22:09;65370.74;;;6.29;100.00
44675;BME280;30388;52.038;-1.478;2023-01-31T07:24:36;65301.37;;;5.64;100.00
44675;BME280;30388;52.038;-1.478;2023-01-31T07:27:03;65400.17;;;6.45;100.00
44675;BME280;30388;52.038;-1.478;2023-01-31T07:29:30;65356.16;;;6.12;100.00
44675;BME280;30388;52.038;-1.478;2023-01-31T07:31:57;65337.18;;;5.88;100.00
44675;BME280;30388;52.038;-1.478;2023-01-31T07:34:25;65277.90;;;5.35;100.00
44675;BME280;30388;52.038;-1.478;2023-01-31T07:36:52;65364.17;;;6.70;100.00
44675;BME280;30388;52.038;-1.478;2023-01-31T07:39:19;65412.12;;;6.83;100.00
44675;BME280;30388;52.038;-1.478;2023-01-31T07:41:46;65396.74;;;6.41;100.00
44675;BME280;30388;52.038;-1.478;2023-01-31T07:44:14;65385.68;;;6.50;100.00
44675;BME280;30388;52.038;-1.478;2023-01-31T07:46:41;65350.90;;;6.05;100.00
44675;BME280;30388;52.038;-1.478;2023-01-31T07:49:09;65372.98;;;6.55;100.00
44675;BME280;30388;52.038;-1.478;2023-01-31T07:51:37;65336.48;;;5.86;100.00
44675;BME280;30388;52.038;-1.478;2023-01-31T07:54:04;65372.12;;;6.32;100.00
44675;BME280;30388;52.038;-1.478;2023-01-31T07:56:31;65311.68;;;5.77;100.00
44675;BME280;30388;52.038;-1.478;2023-01-31T07:58:59;65275.39;;;5.31;100.00
44675;BME280;30388;52.038;-1.478;2023-01-31T08:01:27;65306.50;;;5.98;100.00
44675;BME280;30388;52.038;-1.478;2023-01-31T08:03:54;65343.52;;;6.18;100.00
44675;BME280;30388;52.038;-1.478;2023-01-31T08:06:22;65300.72;;;5.91;100.00
44675;BME280;30388;52.038;-1.478;2023-01-31T08:08:49;65347.35;;;6.48;100.00
44675;BME280;30388;52.038;-1.478;2023-01-31T08:11:16;65327.38;;;6.24;100.00
44675;BME280;30388;52.038;-1.478;2023-01-31T08:13:43;65345.73;;;5.98;100.00
44675;BME280;30388;52.038;-1.478;2023-01-31T08:16:11;65318.85;;;5.87;100.00
44675;BME280;30388;52.038;-1.478;2023-01-31T08:18:38;65386.70;;;6.73;100.00
44675;BME280;30388;52.038;-1.478;2023-01-31T08:21:06;65362.64;;;6.69;100.00
44675;BME280;30388;52.038;-1.478;2023-01-31T08:23:33;65318.69;;;6.13;100.00
44675;BME280;30388;52.038;-1.478;2023-01-31T08:26:02;65328.92;;;5.99;100.00
44675;BME280;30388;52.038;-1.478;2023-01-31T08:28:30;65394.71;;;6.83;100.00
44675;BME280;30388;52.038;-1.478;2023-01-31T08:30:58;65333.34;;;6.31;100.00
44675;BME280;30388;52.038;-1.478;2023-01-31T08:33:25;65393.17;;;7.07;100.00
44675;BME280;30388;52.038;-1.478;2023-01-31T08:35:52;65340.11;;;6.40;100.00
44675;BME280;30388;52.038;-1.478;2023-01-31T08:38:19;65404.18;;;6.95;100.00
44675;BME280;30388;52.038;-1.478;2023-01-31T08:40:46;65364.70;;;6.72;100.00
44675;BME280;30388;52.038;-1.478;2023-01-31T08:43:13;65369.91;;;6.78;100.00
44675;BME280;30388;52.038;-1.478;2023-01-31T08:45:40;65373.36;;;6.82;100.00
44675;BME280;30388;52.038;-1.478;2023-01-31T08:48:07;65378.75;;;6.89;100.00
44675;BME280;30388;52.038;-1.478;2023-01-31T08:50:34;65358.26;;;6.37;100.00
44675;BME280;30388;52.038;-1.478;2023-01-31T08:53:03;65446.40;;;7.49;100.00
44675;BME280;30388;52.038;-1.478;2023-01-31T08:55:33;65465.66;;;7.51;100.00
44675;BME280;30388;52.038;-1.478;2023-01-31T08:58:00;65458.08;;;6.92;100.00
44675;BME280;30388;52.038;-1.478;2023-01-31T09:00:28;65440.97;;;7.19;100.00
44675;BME280;30388;52.038;-1.478;2023-01-31T09:02:57;65436.37;;;7.14;100.00
44675;BME280;30388;52.038;-1.478;2023-01-31T09:05:27;65436.01;;;7.14;100.00
44675;BME280;30388;52.038;-1.478;2023-01-31T09:07:54;65448.75;;;7.30;100.00
44675;BME280;30388;52.038;-1.478;2023-01-31T09:10:22;65422.93;;;6.97;100.00
44675;BME280;30388;52.038;-1.478;2023-01-31T09:12:49;65509.04;;;7.84;100.00
44675;BME280;30388;52.038;-1.478;2023-01-31T09:15:17;65461.62;;;7.47;100.00
44675;BME280;30388;52.038;-1.478;2023-01-31T09:17:44;65424.33;;;6.99;100.00
44675;BME280;30388;52.038;-1.478;2023-01-31T09:20:12;65432.13;;;7.08;100.00
44675;BME280;30388;52.038;-1.478;2023-01-31T09:22:39;65446.26;;;7.75;100.00
44675;BME280;30388;52.038;-1.478;2023-01-31T09:25:07;65465.72;;;7.74;100.00
44675;BME280;30388;52.038;-1.478;2023-01-31T09:27:36;65436.68;;;7.14;100.00
44675;BME280;30388;52.038;-1.478;2023-01-31T09:30:05;65457.85;;;7.41;100.00
44675;BME280;30388;52.038;-1.478;2023-01-31T09:32:33;65487.31;;;7.29;100.00
44675;BME280;30388;52.038;-1.478;2023-01-31T09:35:06;65511.40;;;7.60;100.00
44675;BME280;30388;52.038;-1.478;2023-01-31T09:37:34;65446.29;;;7.26;100.00
44675;BME280;30388;52.038;-1.478;2023-01-31T09:40:01;65499.21;;;7.93;100.00
44675;BME280;30388;52.038;-1.478;2023-01-31T09:42:30;65468.00;;;7.05;100.00
44675;BME280;30388;52.038;-1.478;2023-01-31T09:45:02;65528.01;;;7.81;100.00
44675;BME280;30388;52.038;-1.478;2023-01-31T09:47:33;65485.94;;;7.54;100.00
44675;BME280;30388;52.038;-1.478;2023-01-31T09:50:05;65456.66;;;7.40;100.00
44675;BME280;30388;52.038;-1.478;2023-01-31T09:52:33;65458.12;;;7.63;100.00
44675;BME280;30388;52.038;-1.478;2023-01-31T09:55:00;65510.69;;;7.86;100.00
44675;BME280;30388;52.038;-1.478;2023-01-31T09:57:39;65562.99;;;8.26;100.00
44675;BME280;30388;52.038;-1.478;2023-01-31T10:00:18;65548.19;;;8.07;100.00
44675;BME280;30388;52.038;-1.478;2023-01-31T10:03:05;65500.66;;;7.73;100.00
44675;BME280;30388;52.038;-1.478;2023-01-31T10:05:41;65485.92;;;7.76;100.00
44675;BME280;30388;52.038;-1.478;2023-01-31T10:08:16;65533.46;;;7.87;100.00
44675;BME280;30388;52.038;-1.478;2023-01-31T10:10:49;65500.32;;;7.73;100.00
44675;BME280;30388;52.038;-1.478;2023-01-31T10:13:22;65477.63;;;7.89;100.00
44675;BME280;30388;52.038;-1.478;2023-01-31T10:15:54;65522.31;;;8.22;100.00
44675;BME280;30388;52.038;-1.478;2023-01-31T10:18:26;65493.78;;;7.38;100.00
44675;BME280;30388;52.038;-1.478;2023-01-31T10:21:00;65455.35;;;7.60;100.00
44675;BME280;30388;52.038;-1.478;2023-01-31T10:23:34;65483.06;;;7.52;100.00
44675;BME280;30388;52.038;-1.478;2023-01-31T10:26:07;65497.18;;;7.91;100.00
44675;BME280;30388;52.038;-1.478;2023-01-31T10:28:39;65496.09;;;7.68;100.00
44675;BME280;30388;52.038;-1.478;2023-01-31T10:31:13;65459.81;;;7.43;100.00
44675;BME280;30388;52.038;-1.478;2023-01-31T10:33:48;65472.05;;;7.58;100.00
44675;BME280;30388;52.038;-1.478;2023-01-31T10:36:23;65535.08;;;7.89;100.00
44675;BME280;30388;52.038;-1.478;2023-01-31T10:38:59;65562.65;;;8.24;100.00
44675;BME280;30388;52.038;-1.478;2023-01-31T10:41:37;65529.65;;;7.83;100.00
44675;BME280;30388;52.038;-1.478;2023-01-31T10:44:16;65549.63;;;8.35;100.00
44675;BME280;30388;52.038;-1.478;2023-01-31T10:46:45;65534.58;;;8.38;100.00
44675;BME280;30388;52.038;-1.478;2023-01-31T10:49:13;65561.39;;;8.24;100.00
44675;BME280;30388;52.038;-1.478;2023-01-31T10:51:52;65531.50;;;8.57;100.00
44675;BME280;30388;52.038;-1.478;2023-01-31T10:54:34;65590.74;;;8.60;100.00
44675;BME280;30388;52.038;-1.478;2023-01-31T10:57:04;65658.77;;;9.46;100.00
44675;BME280;30388;52.038;-1.478;2023-01-31T10:59:34;65617.03;;;8.71;100.00
44675;BME280;30388;52.038;-1.478;2023-01-31T11:02:03;65625.66;;;9.05;100.00
44675;BME280;30388;52.038;-1.478;2023-01-31T11:04:34;65648.67;;;8.90;100.00
44675;BME280;30388;52.038;-1.478;2023-01-31T11:07:04;65594.77;;;8.65;100.00
44675;BME280;30388;52.038;-1.478;2023-01-31T11:09:36;65583.92;;;8.51;100.00
44675;BME280;30388;52.038;-1.478;2023-01-31T11:12:06;65591.71;;;8.62;100.00
44675;BME280;30388;52.038;-1.478;2023-01-31T11:14:34;65595.02;;;8.66;100.00
44675;BME280;30388;52.038;-1.478;2023-01-31T11:17:05;65556.34;;;8.17;100.00
44675;BME280;30388;52.038;-1.478;2023-01-31T11:19:36;65499.37;;;7.94;100.00
44675;BME280;30388;52.038;-1.478;2023-01-31T11:22:05;65477.80;;;7.66;100.00
44675;BME280;30388;52.038;-1.478;2023-01-31T11:24:36;65484.22;;;7.74;100.00
44675;BME280;30388;52.038;-1.478;2023-01-31T11:27:08;65556.61;;;8.16;100.00
44675;BME280;30388;52.038;-1.478;2023-01-31T11:29:37;65544.12;;;8.02;100.00
44675;BME280;30388;52.038;-1.478;2023-01-31T11:32:12;65512.30;;;8.10;100.00
44675;BME280;30388;52.038;-1.478;2023-01-31T11:34:55;65482.40;;;7.94;100.00
44675;BME280;30388;52.038;-1.478;2023-01-31T11:37:22;65595.09;;;8.65;100.00
44675;BME280;30388;52.038;-1.478;2023-01-31T11:39:54;65607.94;;;8.81;100.00
44675;BME280;30388;52.038;-1.478;2023-01-31T11:42:22;65573.93;;;8.39;100.00
44675;BME280;30388;52.038;-1.478;2023-01-31T11:44:54;65738.64;;;10.03;100.00
44675;BME280;30388;52.038;-1.478;2023-01-31T11:47:30;65706.56;;;9.63;100.00
44675;BME280;30388;52.038;-1.478;2023-01-31T11:49:59;65661.92;;;9.50;100.00
44675;BME280;30388;52.038;-1.478;2023-01-31T11:52:29;65632.81;;;8.92;100.00
44675;BME280;30388;52.038;-1.478;2023-01-31T11:54:59;65533.75;;;8.37;100.00
44675;BME280;30388;52.038;-1.478;2023-01-31T11:57:31;65395.34;;;7.10;100.00
44675;BME280;30388;52.038;-1.478;2023-01-31T12:00:00;65394.57;;;7.58;100.00
44675;BME280;30388;52.038;-1.478;2023-01-31T12:02:34;65368.37;;;6.76;100.00
44675;BME280;30388;52.038;-1.478;2023-01-31T12:05:08;65360.09;;;6.88;100.00
44675;BME280;30388;52.038;-1.478;2023-01-31T12:07:43;65383.85;;;6.96;100.00
44675;BME280;30388;52.038;-1.478;2023-01-31T12:10:30;65435.20;;;7.35;100.00
44675;BME280;30388;52.038;-1.478;2023-01-31T12:13:00;65484.79;;;7.75;100.00
44675;BME280;30388;52.038;-1.478;2023-01-31T12:15:28;65385.55;;;6.72;100.00
44675;BME280;30388;52.038;-1.478;2023-01-31T12:17:56;65463.38;;;7.70;100.00
44675;BME280;30388;52.038;-1.478;2023-01-31T12:20:34;65555.91;;;8.43;100.00
44675;BME280;30388;52.038;-1.478;2023-01-31T12:23:11;65508.14;;;8.04;100.00
44675;BME280;30388;52.038;-1.478;2023-01-31T12:25:55;65484.84;;;7.53;100.00
44675;BME280;30388;52.038;-1.478;2023-01-31T12:28:35;65393.44;;;7.07;100.00
44675;BME280;30388;52.038;-1.478;2023-01-31T12:31:16;65400.98;;;7.18;100.00
44675;BME280;30388;52.038;-1.478;2023-01-31T12:33:58;65416.27;;;7.36;100.00
44675;BME280;30388;52.038;-1.478;2023-01-31T12:36:40;65510.86;;;8.08;100.00
44675;BME280;30388;52.038;-1.478;2023-01-31T12:39:21;65516.32;;;8.15;100.00
44675;BME280;30388;52.038;-1.478;2023-01-31T12:42:02;65530.25;;;8.53;100.00
44675;BME280;30388;52.038;-1.478;2023-01-31T12:44:41;65519.22;;;8.40;100.00
44675;BME280;30388;52.038;-1.478;2023-01-31T12:47:32;65552.27;;;8.60;100.00
44675;BME280;30388;52.038;-1.478;2023-01-31T12:50:11;65568.36;;;8.32;100.00
44675;BME280;30388;52.038;-1.478;2023-01-31T12:52:51;65559.81;;;8.69;100.00
44675;BME280;30388;52.038;-1.478;2023-01-31T12:55:29;65640.44;;;9.50;100.00
44675;BME280;30388;52.038;-1.478;2023-01-31T12:58:13;65629.30;;;8.87;100.00
44675;BME280;30388;52.038;-1.478;2023-01-31T13:00:48;65623.60;;;9.02;100.00
44675;BME280;30388;52.038;-1.478;2023-01-31T13:03:42;65590.45;;;9.08;100.00
44675;BME280;30388;52.038;-1.478;2023-01-31T13:06:17;65565.03;;;8.76;100.00